createdAt,value
2022-10-25T00:01:53.755Z,1.37
2022-10-25T00:06:52.920Z,1.20
2022-10-25T00:09:19.995Z,1.20
2022-10-25T00:11:47.113Z,1.10
2022-10-25T00:14:18.610Z,1.40
2022-10-25T00:16:45.670Z,1.10
2022-10-25T00:19:14.234Z,1.20
2022-10-25T00:21:41.530Z,1.20
2022-10-25T00:24:10.582Z,1.20
2022-10-25T00:26:40.411Z,1.37
2022-10-25T00:29:07.880Z,1.00
2022-10-25T00:31:35.261Z,1.10
2022-10-25T00:34:02.358Z,1.17
2022-10-25T00:36:29.427Z,1.30
2022-10-25T00:38:57.934Z,1.23
2022-10-25T00:41:26.478Z,1.30
2022-10-25T00:43:54.572Z,1.20
2022-10-25T00:46:21.751Z,1.20
2022-10-25T00:49:01.728Z,1.00
2022-10-25T00:51:50.302Z,1.10
2022-10-25T00:54:19.502Z,1.00
2022-10-25T00:56:47.768Z,1.30
2022-10-25T00:59:17.291Z,0.90
2022-10-25T01:01:44.467Z,1.30
2022-10-25T01:04:13.956Z,1.00
2022-10-25T01:06:47.301Z,1.00
2022-10-25T01:09:16.432Z,1.37
2022-10-25T01:11:43.650Z,0.90
2022-10-25T01:14:13.438Z,1.13
2022-10-25T01:16:55.950Z,1.10
2022-10-25T01:19:25.960Z,1.37
2022-10-25T01:22:11.990Z,1.20
2022-10-25T01:24:58.519Z,1.00
2022-10-25T01:27:25.579Z,1.00
2022-10-25T01:33:28.039Z,1.00
2022-10-25T01:36:01.985Z,0.83
2022-10-25T01:38:36.502Z,1.20
2022-10-25T01:41:20.403Z,1.20
2022-10-25T01:44:02.721Z,1.20
2022-10-25T01:46:37.247Z,1.03
2022-10-25T01:49:09.418Z,1.10
2022-10-25T01:51:37.246Z,1.27
2022-10-25T01:54:04.875Z,1.00
2022-10-25T01:56:34.742Z,1.23
2022-10-25T01:59:20.614Z,1.03
2022-10-25T02:02:06.573Z,1.37
2022-10-25T02:04:44.541Z,1.10
2022-10-25T02:07:16.314Z,1.00
2022-10-25T02:10:02.608Z,1.00
2022-10-25T02:12:49.964Z,0.87
2022-10-25T02:15:22.185Z,1.00
2022-10-25T02:18:00.734Z,0.90
2022-10-25T02:20:29.202Z,1.23
2022-10-25T02:22:57.476Z,1.03
2022-10-25T02:25:24.665Z,1.00
2022-10-25T02:27:53.530Z,1.00
2022-10-25T02:30:20.833Z,1.07
2022-10-25T02:32:47.924Z,0.80
2022-10-25T02:35:16.138Z,1.20
2022-10-25T02:37:43.558Z,0.80
2022-10-25T02:40:11.515Z,0.90
2022-10-25T02:42:38.641Z,0.90
2022-10-25T02:45:05.971Z,1.17
2022-10-25T02:47:33.089Z,1.10
2022-10-25T02:50:00.763Z,1.20
2022-10-25T02:52:27.908Z,1.00
2022-10-25T02:54:54.993Z,1.00
2022-10-25T02:57:22.061Z,1.13
2022-10-25T02:59:49.311Z,1.00
2022-10-25T03:02:16.419Z,1.47
2022-10-25T03:04:43.529Z,1.10
2022-10-25T03:07:10.597Z,1.30
2022-10-25T03:09:37.706Z,1.40
2022-10-25T03:12:04.861Z,1.10
2022-10-25T03:14:31.971Z,1.03
2022-10-25T03:16:59.034Z,0.97
2022-10-25T03:19:26.175Z,1.40
2022-10-25T03:21:53.206Z,1.40
2022-10-25T03:24:20.490Z,1.70
2022-10-25T03:26:47.629Z,1.30
2022-10-25T03:29:14.686Z,1.37
2022-10-25T03:31:41.759Z,1.30
2022-10-25T03:34:08.805Z,1.50
2022-10-25T03:36:35.868Z,1.20
2022-10-25T03:39:02.966Z,1.10
2022-10-25T03:41:30.026Z,1.03
2022-10-25T03:43:57.099Z,1.30
2022-10-25T03:46:24.162Z,1.30
2022-10-25T03:48:51.233Z,1.30
2022-10-25T03:51:18.345Z,1.40
2022-10-25T03:53:45.404Z,1.23
2022-10-25T03:56:12.468Z,1.07
2022-10-25T03:58:39.577Z,1.30
2022-10-25T04:01:09.109Z,1.10
2022-10-25T04:03:37.947Z,1.40
2022-10-25T04:06:05.100Z,1.20
2022-10-25T04:08:32.192Z,1.33
2022-10-25T04:10:59.240Z,1.93
2022-10-25T04:13:26.329Z,1.20
2022-10-25T04:15:53.421Z,1.60
2022-10-25T04:18:21.231Z,1.30
2022-10-25T04:20:48.291Z,1.70
2022-10-25T04:23:15.346Z,1.37
2022-10-25T04:25:42.415Z,1.40
2022-10-25T04:28:09.502Z,1.27
2022-10-25T04:30:38.082Z,1.37
2022-10-25T04:33:06.010Z,1.40
2022-10-25T04:35:33.053Z,1.60
2022-10-25T04:38:00.100Z,1.43
2022-10-25T04:40:27.180Z,1.30
2022-10-25T04:42:54.260Z,1.80
2022-10-25T04:45:21.332Z,1.30
2022-10-25T04:47:48.507Z,1.80
2022-10-25T04:50:15.637Z,1.30
2022-10-25T04:52:42.709Z,1.50
2022-10-25T04:55:09.969Z,1.60
2022-10-25T04:57:37.026Z,1.50
2022-10-25T05:00:04.635Z,1.60
2022-10-25T05:02:31.765Z,1.50
2022-10-25T05:04:58.871Z,1.50
2022-10-25T05:07:25.933Z,1.73
2022-10-25T05:09:53.028Z,1.40
2022-10-25T05:12:20.156Z,1.30
2022-10-25T05:14:47.276Z,1.90
2022-10-25T05:17:14.385Z,1.57
2022-10-25T05:19:41.464Z,1.40
2022-10-25T05:22:08.548Z,1.57
2022-10-25T05:24:35.632Z,1.30
2022-10-25T05:27:02.734Z,1.53
2022-10-25T05:29:29.845Z,1.80
2022-10-25T05:31:56.949Z,1.93
2022-10-25T05:34:24.021Z,1.47
2022-10-25T05:36:51.115Z,1.77
2022-10-25T05:39:18.198Z,1.73
2022-10-25T05:41:45.394Z,1.70
2022-10-25T05:44:12.604Z,1.50
2022-10-25T05:46:39.669Z,1.90
2022-10-25T05:49:06.718Z,1.60
2022-10-25T05:51:35.689Z,1.97
2022-10-25T05:54:07.987Z,1.83
2022-10-25T05:56:35.808Z,1.60
2022-10-25T05:59:09.842Z,1.57
2022-10-25T06:01:41.277Z,1.60
2022-10-25T06:04:08.904Z,1.77
2022-10-25T06:06:36.835Z,1.60
2022-10-25T06:09:04.469Z,1.70
2022-10-25T06:11:31.899Z,1.70
2022-10-25T06:13:59.348Z,2.00
2022-10-25T06:16:26.535Z,1.50
2022-10-25T06:18:54.627Z,1.73
2022-10-25T06:21:23.496Z,1.80
2022-10-25T06:23:50.887Z,1.57
2022-10-25T06:26:25.317Z,1.60
2022-10-25T06:28:53.273Z,1.57
2022-10-25T06:31:20.494Z,1.60
2022-10-25T06:33:47.631Z,1.50
2022-10-25T06:36:19.244Z,1.60
2022-10-25T06:38:46.830Z,1.60
2022-10-25T06:41:15.273Z,1.80
2022-10-25T06:43:42.376Z,1.50
2022-10-25T06:46:10.319Z,1.50
2022-10-25T06:48:38.176Z,1.30
2022-10-25T06:51:06.126Z,1.40
2022-10-25T06:53:33.509Z,1.50
2022-10-25T06:56:06.011Z,1.53
2022-10-25T06:58:34.873Z,1.27
2022-10-25T07:01:02.987Z,1.43
2022-10-25T07:03:34.773Z,1.50
2022-10-25T07:06:12.106Z,1.50
2022-10-25T07:08:40.835Z,1.27
2022-10-25T07:11:08.481Z,1.20
2022-10-25T07:13:36.022Z,1.50
2022-10-25T07:16:06.996Z,1.60
2022-10-25T07:18:34.655Z,1.60
2022-10-25T07:21:03.053Z,1.40
2022-10-25T07:23:30.733Z,1.50
2022-10-25T07:25:58.346Z,1.30
2022-10-25T07:28:25.908Z,1.40
2022-10-25T07:30:54.759Z,1.67
2022-10-25T07:33:22.060Z,1.43
2022-10-25T07:36:06.160Z,1.40
2022-10-25T07:38:37.220Z,1.50
2022-10-25T07:41:04.500Z,1.40
2022-10-25T07:43:31.685Z,1.27
2022-10-25T07:45:58.848Z,1.60
2022-10-25T07:48:26.262Z,1.60
2022-10-25T07:50:53.415Z,1.60
2022-10-25T07:53:20.521Z,1.70
2022-10-25T07:55:51.665Z,1.50
2022-10-25T07:58:18.771Z,1.93
2022-10-25T08:00:45.974Z,1.57
2022-10-25T08:03:13.741Z,1.53
2022-10-25T08:05:40.903Z,1.67
2022-10-25T08:08:08.057Z,1.33
2022-10-25T08:10:35.114Z,1.50
2022-10-25T08:13:02.157Z,1.60
2022-10-25T08:15:29.243Z,1.60
2022-10-25T08:18:02.509Z,1.93
2022-10-25T08:20:56.325Z,1.50
2022-10-25T08:23:17.056Z,1.23
2022-10-25T08:25:44.189Z,1.67
2022-10-25T08:28:11.441Z,1.40
2022-10-25T08:30:38.650Z,1.70
2022-10-25T08:33:11.246Z,1.50
2022-10-25T08:35:38.780Z,1.40
2022-10-25T08:38:06.188Z,1.50
2022-10-25T08:40:43.034Z,1.48
2022-10-25T08:43:13.089Z,1.50
2022-10-25T08:45:43.830Z,1.47
2022-10-25T08:48:16.865Z,1.70
2022-10-25T08:50:54.492Z,1.63
2022-10-25T08:53:24.002Z,1.40
2022-10-25T08:56:15.234Z,1.57
2022-10-25T08:58:43.017Z,1.60
2022-10-25T09:01:15.427Z,1.87
2022-10-25T09:03:42.571Z,1.70
2022-10-25T09:06:09.688Z,1.70
2022-10-25T09:08:42.684Z,1.60
2022-10-25T09:11:15.657Z,1.83
2022-10-25T09:13:58.082Z,1.70
2022-10-25T09:16:42.856Z,1.50
2022-10-25T09:19:16.410Z,1.77
2022-10-25T09:21:50.184Z,1.40
2022-10-25T09:24:24.635Z,1.40
2022-10-25T09:27:00.612Z,1.70
2022-10-25T09:29:47.413Z,1.60
2022-10-25T09:32:18.044Z,1.52
2022-10-25T09:34:45.471Z,1.70
2022-10-25T09:37:26.160Z,1.77
2022-10-25T09:39:55.122Z,1.60
2022-10-25T09:42:42.122Z,1.92
2022-10-25T09:45:16.892Z,1.55
2022-10-25T09:47:44.082Z,1.88
2022-10-25T09:50:30.044Z,1.48
2022-10-25T09:53:05.574Z,1.58
2022-10-25T09:55:51.299Z,1.30
2022-10-25T09:58:24.566Z,1.33
2022-10-25T10:00:52.855Z,1.45
2022-10-25T10:03:20.668Z,1.50
2022-10-25T10:05:51.028Z,1.40
2022-10-25T10:08:18.257Z,1.47
2022-10-25T10:10:46.083Z,1.40
2022-10-25T10:13:31.993Z,1.50
2022-10-25T10:16:00.627Z,1.60
2022-10-25T10:18:29.567Z,1.30
2022-10-25T10:20:58.214Z,1.50
2022-10-25T10:23:25.844Z,1.73
2022-10-25T10:25:53.287Z,1.43
2022-10-25T10:28:20.566Z,1.50
2022-10-25T10:30:55.685Z,1.42
2022-10-25T10:33:23.296Z,2.03
2022-10-25T10:35:53.775Z,1.60
2022-10-25T10:38:25.059Z,1.63
2022-10-25T10:40:53.401Z,1.70
2022-10-25T10:43:24.577Z,1.40
2022-10-25T10:45:52.721Z,1.45
2022-10-25T10:48:23.969Z,1.45
2022-10-25T10:50:52.016Z,1.40
2022-10-25T10:53:21.063Z,1.35
2022-10-25T10:55:48.452Z,1.17
2022-10-25T10:58:17.193Z,1.27
2022-10-25T11:00:56.474Z,1.30
2022-10-25T11:03:49.245Z,1.38
2022-10-25T11:06:33.593Z,1.52
2022-10-25T11:09:13.093Z,1.48
2022-10-25T11:11:40.764Z,1.10
2022-10-25T11:14:15.123Z,1.40
2022-10-25T11:16:48.432Z,1.55
2022-10-25T11:19:26.810Z,1.55
2022-10-25T11:21:57.013Z,1.20
2022-10-25T11:24:24.036Z,1.10
2022-10-25T11:26:58.274Z,1.25
2022-10-25T11:29:37.380Z,1.45
2022-10-25T11:32:22.681Z,1.40
2022-10-25T11:34:54.548Z,1.33
2022-10-25T11:37:24.636Z,1.58
2022-10-25T11:39:51.707Z,1.55
2022-10-25T11:42:29.906Z,1.23
2022-10-25T11:45:12.389Z,1.33
2022-10-25T11:47:43.371Z,1.13
2022-10-25T11:50:33.487Z,1.15
2022-10-25T11:53:15.918Z,1.17
2022-10-25T11:55:45.757Z,1.08
2022-10-25T11:58:22.462Z,0.90
2022-10-25T12:00:52.302Z,1.15
2022-10-25T12:03:38.037Z,0.80
2022-10-25T12:06:23.872Z,1.05
2022-10-25T12:08:50.964Z,0.98
2022-10-25T12:11:23.996Z,0.80
2022-10-25T12:13:52.523Z,1.08
2022-10-25T12:16:21.208Z,1.10
2022-10-25T12:19:03.308Z,1.00
2022-10-25T12:21:36.321Z,0.90
2022-10-25T12:24:05.199Z,1.00
2022-10-25T12:26:38.509Z,1.10
2022-10-25T12:29:06.697Z,1.20
2022-10-25T12:31:41.652Z,0.90
2022-10-25T12:34:13.439Z,1.13
2022-10-25T12:36:49.732Z,0.93
2022-10-25T12:39:29.055Z,1.42
2022-10-25T12:41:59.847Z,1.00
2022-10-25T12:44:45.584Z,1.20
2022-10-25T12:47:33.753Z,0.82
2022-10-25T12:50:03.599Z,1.00
2022-10-25T12:52:38.509Z,0.80
2022-10-25T12:55:19.791Z,0.80
2022-10-25T12:57:58.676Z,0.88
2022-10-25T13:00:25.959Z,0.80
2022-10-25T13:02:58.970Z,0.90
2022-10-25T13:05:28.766Z,0.75
2022-10-25T13:07:57.789Z,0.90
2022-10-25T13:13:07.268Z,0.90
2022-10-25T13:15:45.261Z,0.85
2022-10-25T13:18:31.131Z,0.60
2022-10-25T13:20:58.357Z,0.90
2022-10-25T13:23:43.394Z,0.68
2022-10-25T13:26:11.761Z,0.88
2022-10-25T13:28:49.055Z,0.90
2022-10-25T13:31:34.267Z,0.98
2022-10-25T13:34:13.341Z,0.73
2022-10-25T13:36:53.795Z,0.85
2022-10-25T13:39:39.666Z,0.88
2022-10-25T13:42:11.501Z,0.90
2022-10-25T13:44:39.960Z,0.90
2022-10-25T13:47:26.478Z,0.80
2022-10-25T13:49:53.577Z,0.90
2022-10-25T13:52:24.808Z,1.00
2022-10-25T13:54:54.448Z,0.75
2022-10-25T13:57:40.161Z,1.05
2022-10-25T14:00:12.358Z,0.85
2022-10-25T14:02:59.428Z,0.90
2022-10-25T14:05:45.344Z,0.70
2022-10-25T14:08:18.904Z,0.88
2022-10-25T14:10:47.898Z,1.00
2022-10-25T14:13:35.234Z,1.13
2022-10-25T14:16:04.909Z,1.00
2022-10-25T14:18:34.929Z,1.00
2022-10-25T14:21:05.409Z,0.82
2022-10-25T14:23:34.577Z,1.25
2022-10-25T14:26:02.897Z,0.90
2022-10-25T14:28:31.058Z,1.05
2022-10-25T14:30:59.379Z,1.10
2022-10-25T14:33:30.794Z,0.90
2022-10-25T14:35:59.296Z,1.15
2022-10-25T14:38:28.122Z,0.95
2022-10-25T14:40:56.644Z,0.90
2022-10-25T14:43:31.933Z,1.20
2022-10-25T14:46:00.667Z,1.00
2022-10-25T14:48:27.873Z,1.05
2022-10-25T14:50:55.880Z,0.98
2022-10-25T14:53:23.104Z,1.17
2022-10-25T14:55:51.917Z,0.80
2022-10-25T14:58:19.097Z,1.08
2022-10-25T15:00:57.003Z,0.90
2022-10-25T15:03:24.673Z,0.90
2022-10-25T15:05:53.305Z,0.98
2022-10-25T15:08:25.406Z,0.90
2022-10-25T15:10:56.176Z,1.17
2022-10-25T15:13:27.282Z,1.20
2022-10-25T15:15:54.631Z,1.10
2022-10-25T15:18:24.215Z,1.55
2022-10-25T15:21:02.158Z,1.50
2022-10-25T15:23:29.307Z,1.50
2022-10-25T15:25:56.399Z,1.50
2022-10-25T15:28:23.599Z,1.27
2022-10-25T15:30:50.652Z,1.42
2022-10-25T15:33:28.687Z,1.30
2022-10-25T15:35:57.147Z,1.30
2022-10-25T15:38:42.095Z,1.30
2022-10-25T15:41:14.627Z,1.37
2022-10-25T15:47:19.379Z,1.57
2022-10-25T15:49:46.492Z,1.20
2022-10-25T15:52:15.246Z,1.13
2022-10-25T15:54:43.739Z,1.33
2022-10-25T15:57:10.972Z,1.20
2022-10-25T15:59:38.111Z,1.50
2022-10-25T16:02:11.979Z,1.40
2022-10-25T16:04:39.160Z,1.50
2022-10-25T16:07:06.213Z,1.43
2022-10-25T16:09:33.272Z,1.50
2022-10-25T16:12:00.506Z,1.87
2022-10-25T16:14:28.640Z,2.00
2022-10-25T16:16:58.081Z,2.30
2022-10-25T16:19:26.352Z,1.97
2022-10-25T16:21:53.413Z,1.87
2022-10-25T16:24:20.685Z,2.40
2022-10-25T16:26:48.777Z,3.57
2022-10-25T16:29:20.354Z,3.87
2022-10-25T16:31:47.528Z,5.27
2022-10-25T16:34:17.211Z,4.30
2022-10-25T16:36:45.042Z,4.47
2022-10-25T16:39:12.238Z,4.70
2022-10-25T16:41:40.774Z,4.27
2022-10-25T16:44:07.912Z,3.53
2022-10-25T16:46:35.012Z,2.60
2022-10-25T16:49:02.481Z,3.00
2022-10-25T16:51:29.717Z,2.97
2022-10-25T16:53:58.322Z,3.07
2022-10-25T16:56:25.386Z,3.07
2022-10-25T16:58:52.492Z,2.20
2022-10-25T17:01:20.180Z,2.57
2022-10-25T17:03:51.084Z,2.40
2022-10-25T17:06:40.329Z,4.70
2022-10-25T17:09:06.573Z,2.63
2022-10-25T17:11:33.694Z,2.30
2022-10-25T17:14:00.765Z,1.97
2022-10-25T17:16:27.880Z,2.30
2022-10-25T17:18:54.956Z,2.17
2022-10-25T17:21:22.741Z,2.70
2022-10-25T17:23:49.950Z,2.80
2022-10-25T17:26:17.108Z,2.43
2022-10-25T17:28:44.607Z,3.20
2022-10-25T17:31:13.165Z,3.10
2022-10-25T17:33:40.654Z,3.10
2022-10-25T17:36:17.937Z,3.23
2022-10-25T17:38:45.493Z,3.40
2022-10-25T17:41:13.334Z,2.90
2022-10-25T17:43:41.519Z,3.30
2022-10-25T17:46:10.055Z,3.23
2022-10-25T17:48:37.203Z,3.10
2022-10-25T17:51:05.223Z,3.57
2022-10-25T17:53:32.655Z,3.37
2022-10-25T17:56:00.184Z,3.10
2022-10-25T17:58:27.242Z,3.03
2022-10-25T18:00:55.463Z,2.90
2022-10-25T18:03:22.597Z,2.87
2022-10-25T18:05:49.700Z,3.53
2022-10-25T18:08:16.838Z,3.40
2022-10-25T18:10:43.900Z,3.50
2022-10-25T18:13:11.096Z,4.83
2022-10-25T18:15:38.362Z,5.00
2022-10-25T18:18:05.529Z,4.70
2022-10-25T18:20:32.686Z,4.73
2022-10-25T18:22:59.839Z,4.10
2022-10-25T18:25:26.953Z,5.13
2022-10-25T18:27:54.064Z,3.77
2022-10-25T18:30:21.234Z,4.30
2022-10-25T18:32:48.390Z,4.90
2022-10-25T18:35:15.478Z,5.17
2022-10-25T18:37:42.576Z,4.40
2022-10-25T18:40:10.210Z,4.70
2022-10-25T18:42:38.122Z,4.63
2022-10-25T18:45:05.689Z,4.23
2022-10-25T18:47:32.746Z,4.30
2022-10-25T18:49:59.840Z,5.30
2022-10-25T18:52:27.430Z,5.50
2022-10-25T18:54:54.560Z,4.97
2022-10-25T18:57:21.603Z,4.40
2022-10-25T18:59:48.710Z,4.63
2022-10-25T19:02:15.891Z,4.70
2022-10-25T19:04:43.205Z,4.60
2022-10-25T19:07:10.265Z,4.80
2022-10-25T19:09:37.370Z,5.20
2022-10-25T19:12:04.565Z,5.53
2022-10-25T19:14:31.605Z,5.30
2022-10-25T19:16:58.691Z,5.33
2022-10-25T19:19:25.764Z,4.70
2022-10-25T19:21:52.953Z,5.27
2022-10-25T19:24:20.076Z,5.13
2022-10-25T19:26:47.240Z,5.53
2022-10-25T19:29:14.459Z,5.57
2022-10-25T19:31:41.573Z,5.87
2022-10-25T19:34:08.622Z,6.00
2022-10-25T19:36:35.798Z,5.57
2022-10-25T19:39:03.738Z,6.63
2022-10-25T19:41:30.923Z,7.80
2022-10-25T19:43:58.492Z,6.33
2022-10-25T19:46:25.629Z,6.50
2022-10-25T19:48:52.825Z,6.13
2022-10-25T19:51:20.979Z,6.27
2022-10-25T19:53:48.468Z,6.80
2022-10-25T19:56:16.922Z,6.70
2022-10-25T19:58:44.271Z,5.93
2022-10-25T20:01:12.970Z,5.90
2022-10-25T20:03:40.962Z,6.60
2022-10-25T20:06:12.523Z,6.33
2022-10-25T20:08:40.544Z,6.40
2022-10-25T20:11:08.337Z,6.20
2022-10-25T20:13:35.576Z,7.43
2022-10-25T20:16:02.794Z,7.10
2022-10-25T20:18:31.291Z,6.67
2022-10-25T20:21:02.791Z,6.70
2022-10-25T20:23:30.034Z,6.30
2022-10-25T20:25:57.144Z,6.27
2022-10-25T20:28:24.309Z,6.70
2022-10-25T20:30:51.650Z,7.97
2022-10-25T20:33:20.420Z,8.13
2022-10-25T20:35:47.538Z,7.20
2022-10-25T20:38:14.770Z,6.57
2022-10-25T20:40:41.934Z,6.87
2022-10-25T20:43:09.031Z,6.90
2022-10-25T20:45:36.234Z,6.60
2022-10-25T20:48:03.468Z,6.53
2022-10-25T20:50:31.124Z,6.90
2022-10-25T20:53:09.676Z,6.20
2022-10-25T20:55:37.507Z,7.07
2022-10-25T20:58:04.817Z,6.90
2022-10-25T21:00:32.861Z,8.50
2022-10-25T21:03:00.194Z,7.50
2022-10-25T21:05:27.324Z,6.90
2022-10-25T21:07:54.395Z,6.83
2022-10-25T21:10:21.498Z,6.37
2022-10-25T21:12:48.580Z,6.83
2022-10-25T21:15:15.663Z,6.90
2022-10-25T21:17:42.827Z,7.40
2022-10-25T21:20:10.159Z,7.80
2022-10-25T21:22:41.019Z,6.83
2022-10-25T21:25:08.439Z,7.30
2022-10-25T21:27:35.552Z,7.03
2022-10-25T21:30:02.601Z,7.73
2022-10-25T21:32:29.893Z,7.60
2022-10-25T21:34:56.974Z,7.10
2022-10-25T21:37:24.052Z,7.20
2022-10-25T21:39:51.146Z,7.00
2022-10-25T21:42:18.254Z,7.37
2022-10-25T21:44:45.320Z,7.53
2022-10-25T21:47:12.383Z,7.77
2022-10-25T21:49:39.470Z,7.03
2022-10-25T21:52:06.573Z,6.90
2022-10-25T21:54:33.715Z,7.43
2022-10-25T21:57:00.782Z,7.73
2022-10-25T21:59:28.045Z,7.23
2022-10-25T22:01:55.267Z,7.10
2022-10-25T22:04:23.874Z,7.70
2022-10-25T22:06:51.091Z,7.47
2022-10-25T22:09:18.138Z,7.90
2022-10-25T22:11:45.185Z,8.37
2022-10-25T22:14:15.054Z,8.37
2022-10-25T22:16:42.138Z,7.70
2022-10-25T22:19:13.639Z,8.13
2022-10-25T22:21:41.228Z,8.10
2022-10-25T22:24:09.145Z,8.03
2022-10-25T22:26:37.095Z,9.17
2022-10-25T22:29:04.906Z,8.70
2022-10-25T22:31:32.292Z,8.57
2022-10-25T22:34:00.508Z,9.07
2022-10-25T22:36:28.763Z,8.43
2022-10-25T22:38:56.895Z,8.37
2022-10-25T22:41:25.347Z,8.53
2022-10-25T22:43:52.426Z,8.80
2022-10-25T22:46:25.302Z,8.87
2022-10-25T22:48:53.878Z,8.30
2022-10-25T22:51:21.557Z,8.77
2022-10-25T22:53:48.646Z,8.90
2022-10-25T22:56:17.055Z,8.73
2022-10-25T22:58:48.233Z,8.03
2022-10-25T23:01:16.470Z,8.50
2022-10-25T23:03:44.822Z,8.07
2022-10-25T23:06:13.201Z,8.47
2022-10-25T23:08:40.332Z,8.27
2022-10-25T23:11:08.616Z,7.80
2022-10-25T23:13:36.766Z,8.10
2022-10-25T23:16:04.436Z,7.53
2022-10-25T23:18:31.655Z,7.80
2022-10-25T23:20:59.683Z,8.67
2022-10-25T23:23:27.360Z,8.13
2022-10-25T23:25:54.594Z,8.03
2022-10-25T23:28:21.976Z,7.63
2022-10-25T23:30:49.532Z,7.97
2022-10-25T23:33:17.690Z,8.40
2022-10-25T23:35:44.769Z,7.60
2022-10-25T23:38:12.635Z,8.27
2022-10-25T23:40:40.242Z,8.50
2022-10-25T23:43:07.367Z,8.33
2022-10-25T23:45:34.485Z,8.63
2022-10-25T23:48:01.539Z,7.97
2022-10-25T23:50:28.637Z,8.30
2022-10-25T23:52:55.802Z,8.27
2022-10-25T23:55:22.892Z,7.87
2022-10-25T23:57:49.969Z,9.07
